Time;durP1;ratioP1;P1;durP2;ratioP2;P2;SDS_P1;SDS_P2;PMS_P1;PMS_P2;Temp;Humidity;BMP_temperature;BMP_pressure;BME280_temperature;BME280_humidity;BME280_pressure;Samples;Min_cycle;Max_cycle;Signal;HPM_P1;HPM_P2
2022/07/23 00:02:03;;;;;;;5.35;3.00;;;14.60;99.90;;;;;;5031867;28;20710;-90
2022/07/23 00:04:35;;;;;;;4.80;3.15;;;14.50;99.90;;;;;;5028770;28;20200;-89
2022/07/23 00:07:07;;;;;;;7.55;4.00;;;14.60;99.90;;;;;;5026181;28;20219;-90
2022/07/23 00:09:39;;;;;;;8.75;4.47;;;14.70;99.90;;;;;;5028004;28;21807;-88
2022/07/23 00:12:10;;;;;;;5.93;3.67;;;14.70;99.90;;;;;;5027993;28;20208;-88
2022/07/23 00:14:41;;;;;;;6.60;3.67;;;14.70;99.90;;;;;;5027555;28;20220;-88
2022/07/23 00:17:12;;;;;;;6.00;3.83;;;14.80;99.90;;;;;;5029489;28;20201;-89
2022/07/23 00:19:42;;;;;;;5.43;4.30;;;14.80;99.90;;;;;;5031063;28;20205;-88
2022/07/23 00:22:13;;;;;;;7.15;4.20;;;14.90;99.90;;;;;;5032475;28;20628;-89
2022/07/23 00:24:49;;;;;;;6.78;4.20;;;15.00;99.90;;;;;;5031628;28;20200;-88
2022/07/23 00:27:20;;;;;;;5.13;4.43;;;15.00;99.90;;;;;;5032241;28;20196;-90
2022/07/23 00:29:50;;;;;;;4.75;3.88;;;15.10;99.90;;;;;;5032348;28;20196;-90
2022/07/23 00:32:21;;;;;;;6.55;4.00;;;15.20;99.90;;;;;;5034810;28;20213;-91
2022/07/23 00:34:52;;;;;;;4.82;3.55;;;15.20;99.90;;;;;;5031987;28;20232;-90
2022/07/23 00:37:24;;;;;;;4.28;3.03;;;15.30;99.90;;;;;;5033762;28;20254;-90
2022/07/23 00:39:58;;;;;;;5.07;2.83;;;15.20;99.90;;;;;;5033241;28;20307;-91
2022/07/23 00:42:29;;;;;;;5.20;2.20;;;15.20;99.90;;;;;;5032402;28;20208;-90
2022/07/23 00:45:00;;;;;;;3.95;2.95;;;15.20;99.90;;;;;;5033930;28;20575;-90
2022/07/23 00:47:32;;;;;;;6.53;3.80;;;15.20;99.90;;;;;;5031704;28;20199;-90
2022/07/23 00:50:03;;;;;;;4.25;3.00;;;15.20;99.90;;;;;;5031700;28;20201;-90
2022/07/23 00:52:35;;;;;;;4.25;2.83;;;15.20;99.90;;;;;;5032978;28;20212;-90
2022/07/23 00:55:08;;;;;;;5.93;3.15;;;15.30;99.90;;;;;;5029831;28;20251;-89
2022/07/23 00:57:41;;;;;;;7.10;3.30;;;15.30;99.90;;;;;;5030545;28;20231;-87
2022/07/23 01:00:14;;;;;;;7.18;3.28;;;15.20;99.90;;;;;;5035879;28;20205;-88
2022/07/23 01:02:47;;;;;;;6.85;3.20;;;15.20;99.90;;;;;;5032631;28;20224;-86
2022/07/23 01:05:21;;;;;;;6.82;3.92;;;15.10;99.90;;;;;;5032299;28;20198;-85
2022/07/23 01:07:52;;;;;;;6.15;3.20;;;15.10;99.90;;;;;;5032993;28;20207;-89
2022/07/23 01:10:33;;;;;;;5.53;3.00;;;15.10;99.90;;;;;;5030847;28;20205;-90
2022/07/23 01:13:05;;;;;;;4.20;2.80;;;15.20;99.90;;;;;;5030021;28;20691;-90
2022/07/23 01:15:37;;;;;;;7.70;3.08;;;15.20;99.90;;;;;;5034500;28;20217;-90
2022/07/23 01:18:12;;;;;;;6.57;3.10;;;15.20;99.90;;;;;;5030320;28;20198;-89
2022/07/23 01:20:43;;;;;;;5.10;3.00;;;15.20;99.90;;;;;;5031237;28;20298;-85
2022/07/23 01:23:15;;;;;;;6.32;3.05;;;15.30;99.90;;;;;;5024798;28;20196;-85
2022/07/23 01:25:55;;;;;;;5.78;2.90;;;15.20;99.90;;;;;;5026717;28;20287;-86
2022/07/23 01:28:26;;;;;;;5.65;3.10;;;15.30;99.90;;;;;;5024224;28;20667;-85
2022/07/23 01:30:57;;;;;;;5.35;3.10;;;15.30;99.90;;;;;;5037673;28;20196;-84
2022/07/23 01:33:27;;;;;;;5.00;2.90;;;15.40;99.90;;;;;;5042656;28;20213;-83
2022/07/23 01:35:58;;;;;;;6.70;3.05;;;15.40;99.90;;;;;;5050820;28;20287;-82
2022/07/23 01:38:33;;;;;;;5.40;2.78;;;15.40;99.90;;;;;;5038396;28;20221;-88
2022/07/23 01:41:05;;;;;;;7.32;3.30;;;15.50;99.90;;;;;;5026998;28;20212;-88
2022/07/23 01:43:35;;;;;;;8.43;3.58;;;15.60;99.90;;;;;;5028452;28;20198;-87
2022/07/23 01:46:07;;;;;;;7.95;3.28;;;15.60;99.90;;;;;;5028779;28;20844;-81
2022/07/23 01:48:38;;;;;;;5.38;2.83;;;15.60;99.90;;;;;;5025715;28;20220;-81
2022/07/23 01:51:08;;;;;;;6.07;3.35;;;15.70;99.90;;;;;;5028858;28;20205;-82
2022/07/23 01:53:41;;;;;;;6.63;2.63;;;15.70;99.90;;;;;;5027533;28;20672;-81
2022/07/23 01:56:12;;;;;;;4.30;2.58;;;15.70;99.90;;;;;;5028727;28;20225;-81
2022/07/23 01:58:42;;;;;;;5.18;2.50;;;15.60;99.90;;;;;;5028052;28;20202;-81
2022/07/23 02:01:13;;;;;;;5.03;2.60;;;15.70;99.90;;;;;;5029048;28;20664;-88
2022/07/23 02:03:44;;;;;;;8.18;3.00;;;15.80;99.90;;;;;;5030073;28;20216;-87
2022/07/23 02:06:14;;;;;;;4.22;2.55;;;15.80;99.90;;;;;;5032746;28;22451;-86
2022/07/23 02:08:47;;;;;;;7.97;2.85;;;15.90;99.90;;;;;;5027231;28;20251;-88
2022/07/23 02:11:18;;;;;;;5.65;2.50;;;15.90;99.90;;;;;;5027968;28;20301;-88
2022/07/23 02:13:48;;;;;;;5.93;2.60;;;15.90;99.90;;;;;;5029738;28;20515;-88
2022/07/23 02:16:19;;;;;;;4.80;2.55;;;16.00;99.90;;;;;;5029802;28;20229;-88
2022/07/23 02:18:50;;;;;;;5.68;2.00;;;16.20;99.90;;;;;;5029026;28;20212;-87
2022/07/23 02:21:21;;;;;;;4.25;2.35;;;16.20;99.90;;;;;;5041144;28;20228;-87
2022/07/23 02:23:53;;;;;;;5.00;2.35;;;16.30;99.90;;;;;;5041638;28;20224;-84
2022/07/23 02:26:24;;;;;;;5.18;1.95;;;16.40;99.90;;;;;;5049696;28;20362;-82
2022/07/23 02:28:55;;;;;;;3.25;1.70;;;16.40;99.90;;;;;;5048264;28;20611;-84
2022/07/23 02:31:26;;;;;;;3.53;1.90;;;16.40;99.90;;;;;;5049434;28;20208;-84
2022/07/23 02:33:57;;;;;;;4.65;1.83;;;16.50;99.90;;;;;;5049664;28;20671;-84
2022/07/23 02:36:28;;;;;;;3.08;1.60;;;16.40;99.90;;;;;;5051431;28;20663;-84
2022/07/23 02:39:01;;;;;;;4.07;1.73;;;16.60;99.90;;;;;;5051296;28;20229;-84
2022/07/23 02:41:32;;;;;;;3.53;1.60;;;16.60;99.90;;;;;;5032784;28;20200;-84
2022/07/23 02:44:03;;;;;;;3.67;1.80;;;16.60;99.90;;;;;;5031828;28;22351;-84
2022/07/23 02:46:34;;;;;;;2.55;1.70;;;16.50;99.90;;;;;;5031885;28;20194;-84
2022/07/23 02:49:05;;;;;;;2.40;1.38;;;16.50;99.90;;;;;;5031988;28;20206;-83
2022/07/23 02:51:37;;;;;;;1.52;1.08;;;16.40;99.90;;;;;;5031640;28;20667;-83
2022/07/23 02:54:10;;;;;;;1.88;1.02;;;16.40;99.90;;;;;;5031518;28;20205;-83
2022/07/23 02:56:41;;;;;;;4.13;1.30;;;16.30;99.90;;;;;;5034634;28;20232;-83
2022/07/23 02:59:11;;;;;;;1.75;0.80;;;16.20;99.90;;;;;;5051225;28;20648;-83
2022/07/23 03:01:42;;;;;;;3.03;0.90;;;16.20;99.90;;;;;;5050101;28;20199;-83
2022/07/23 03:04:15;;;;;;;2.35;0.90;;;16.10;99.90;;;;;;5051075;28;20200;-84
2022/07/23 03:06:46;;;;;;;1.77;0.70;;;16.20;99.90;;;;;;5050599;28;20193;-84
2022/07/23 03:09:19;;;;;;;4.18;1.10;;;16.10;99.90;;;;;;5050623;28;20263;-84
2022/07/23 03:11:49;;;;;;;1.13;0.60;;;16.20;99.90;;;;;;5051257;28;20197;-83
2022/07/23 03:14:20;;;;;;;1.48;0.65;;;16.20;99.90;;;;;;5042272;28;20217;-84
2022/07/23 03:16:51;;;;;;;3.55;1.02;;;16.20;99.90;;;;;;5030905;28;20236;-84
2022/07/23 03:19:22;;;;;;;2.10;0.80;;;16.30;99.90;;;;;;5030639;28;20229;-84
2022/07/23 03:21:52;;;;;;;1.98;1.00;;;16.40;99.90;;;;;;5030742;28;20182;-84
2022/07/23 03:24:53;;;;;;;2.40;0.88;;;16.40;99.90;;;;;;5030971;28;20197;-84
2022/07/23 03:27:17;;;;;;;1.45;0.80;;;16.50;99.90;;;;;;5030785;28;20293;-84
2022/07/23 03:29:48;;;;;;;2.08;0.95;;;16.50;99.90;;;;;;5031162;28;20579;-84
2022/07/23 03:32:19;;;;;;;1.90;0.90;;;16.50;99.90;;;;;;5031240;28;20204;-84
2022/07/23 03:34:50;;;;;;;1.55;0.80;;;16.50;99.90;;;;;;5039985;28;20196;-84
2022/07/23 03:37:21;;;;;;;1.48;0.80;;;16.40;99.90;;;;;;5050876;28;20220;-84
2022/07/23 03:39:53;;;;;;;1.23;0.60;;;16.40;99.90;;;;;;5050294;28;20278;-83
2022/07/23 03:42:24;;;;;;;0.80;0.55;;;16.50;99.90;;;;;;5050454;28;20200;-84
2022/07/23 03:44:54;;;;;;;1.08;0.50;;;16.50;99.90;;;;;;5050515;28;20192;-83
2022/07/23 03:47:25;;;;;;;3.75;0.70;;;16.50;99.90;;;;;;5048594;28;20181;-84
2022/07/23 03:49:56;;;;;;;1.95;0.50;;;16.50;99.90;;;;;;5033314;28;20243;-84
2022/07/23 03:52:27;;;;;;;1.52;0.40;;;16.60;99.90;;;;;;5050384;28;20622;-83
2022/07/23 03:54:59;;;;;;;1.27;0.40;;;16.70;99.90;;;;;;5050293;28;20254;-84
2022/07/23 03:57:30;;;;;;;0.55;0.35;;;16.80;99.90;;;;;;5050591;28;20200;-84
2022/07/23 04:00:01;;;;;;;0.65;0.40;;;16.80;99.90;;;;;;5050240;28;20196;-84
2022/07/23 04:02:31;;;;;;;0.63;0.40;;;16.90;99.90;;;;;;5050879;28;20193;-84
2022/07/23 04:05:02;;;;;;;0.82;0.40;;;16.90;99.90;;;;;;5052069;28;20546;-84
2022/07/23 04:07:33;;;;;;;0.90;0.40;;;16.90;99.90;;;;;;5039188;28;20675;-84
2022/07/23 04:10:06;;;;;;;1.80;0.40;;;16.80;99.90;;;;;;5031040;28;20199;-84
2022/07/23 04:12:37;;;;;;;0.65;0.40;;;16.80;99.90;;;;;;5030898;28;20192;-84
2022/07/23 04:15:10;;;;;;;0.77;0.38;;;16.70;99.90;;;;;;5036703;28;20274;-84
2022/07/23 04:17:41;;;;;;;1.90;0.30;;;16.70;99.90;;;;;;5030272;28;20205;-84
2022/07/23 04:20:13;;;;;;;1.15;0.50;;;16.70;99.90;;;;;;5030427;28;20198;-84
2022/07/23 04:22:45;;;;;;;2.05;0.60;;;16.80;99.90;;;;;;5044861;28;20201;-84
2022/07/23 04:25:18;;;;;;;0.88;0.47;;;16.80;99.90;;;;;;5050185;28;20205;-85
2022/07/23 04:27:49;;;;;;;0.50;0.43;;;17.00;99.90;;;;;;5050220;28;20242;-84
2022/07/23 04:30:19;;;;;;;1.48;0.50;;;17.00;99.90;;;;;;5050331;28;20212;-84
2022/07/23 04:32:50;;;;;;;0.73;0.30;;;17.00;99.90;;;;;;5050206;28;20676;-84
2022/07/23 04:35:21;;;;;;;0.98;0.35;;;16.90;99.90;;;;;;5050320;28;20687;-84
2022/07/23 04:37:51;;;;;;;0.20;0.20;;;16.90;99.90;;;;;;5050037;28;20228;-84
2022/07/23 04:40:25;;;;;;;0.85;0.43;;;16.80;99.90;;;;;;5041009;28;20244;-84
2022/07/23 04:42:55;;;;;;;1.35;0.40;;;16.80;99.90;;;;;;5049944;28;20201;-84
2022/07/23 04:45:26;;;;;;;0.60;0.30;;;16.80;99.90;;;;;;5049993;28;20204;-83
2022/07/23 04:47:57;;;;;;;1.08;0.50;;;16.80;99.90;;;;;;5049958;28;20584;-84
2022/07/23 04:50:28;;;;;;;0.82;0.35;;;16.90;99.90;;;;;;5049845;28;20193;-84
2022/07/23 04:52:58;;;;;;;0.40;0.20;;;17.00;99.90;;;;;;5050045;28;20513;-84
2022/07/23 04:55:31;;;;;;;0.85;0.30;;;16.90;99.90;;;;;;5048634;28;20220;-84
2022/07/23 04:58:02;;;;;;;0.32;0.30;;;16.90;99.90;;;;;;5049979;28;20224;-84
2022/07/23 05:00:33;;;;;;;0.77;0.28;;;16.80;99.90;;;;;;5049974;28;20291;-84
2022/07/23 05:03:05;;;;;;;1.15;0.30;;;16.80;99.90;;;;;;5051760;28;20250;-84
2022/07/23 05:05:36;;;;;;;1.35;0.43;;;16.70;99.90;;;;;;5046832;28;20672;-84
2022/07/23 05:08:07;;;;;;;0.95;0.30;;;16.70;99.90;;;;;;5033841;28;20567;-84
2022/07/23 05:10:39;;;;;;;0.35;0.30;;;16.80;99.90;;;;;;5033763;28;20645;-84
2022/07/23 05:13:10;;;;;;;0.45;0.30;;;16.80;99.90;;;;;;5051282;28;20205;-84
2022/07/23 05:15:41;;;;;;;1.48;0.40;;;16.80;99.90;;;;;;5053000;28;20209;-84
2022/07/23 05:18:12;;;;;;;1.60;0.40;;;16.80;99.90;;;;;;5053332;28;20200;-84
2022/07/23 05:20:43;;;;;;;0.40;0.40;;;16.80;99.90;;;;;;5053029;28;20223;-84
2022/07/23 05:23:14;;;;;;;0.30;0.30;;;16.90;99.90;;;;;;5053466;28;20242;-84
2022/07/23 05:25:46;;;;;;;0.52;0.50;;;16.80;99.90;;;;;;5053005;28;20658;-84
2022/07/23 05:28:17;;;;;;;0.45;0.30;;;16.90;99.90;;;;;;5052267;28;20189;-84
2022/07/23 05:30:48;;;;;;;0.60;0.32;;;16.70;99.90;;;;;;5039937;28;20197;-84
2022/07/23 05:33:20;;;;;;;1.45;0.43;;;16.70;99.90;;;;;;5033144;28;20598;-84
2022/07/23 05:35:51;;;;;;;1.27;0.40;;;16.70;99.90;;;;;;5032902;28;20221;-84
2022/07/23 05:38:21;;;;;;;1.58;0.47;;;16.70;99.90;;;;;;5032681;28;20265;-84
2022/07/23 05:40:54;;;;;;;0.32;0.30;;;16.70;99.90;;;;;;5032868;28;20201;-84
2022/07/23 05:43:25;;;;;;;1.75;0.45;;;16.60;99.90;;;;;;5033969;28;20193;-84
2022/07/23 05:45:56;;;;;;;0.63;0.35;;;16.60;99.90;;;;;;5052756;28;20192;-82
2022/07/23 05:48:27;;;;;;;0.35;0.30;;;16.60;99.90;;;;;;5034897;28;20212;-84
2022/07/23 05:50:59;;;;;;;0.63;0.40;;;16.60;99.90;;;;;;5032703;28;20197;-84
2022/07/23 05:53:30;;;;;;;0.50;0.30;;;16.60;99.90;;;;;;5032790;28;20300;-84
2022/07/23 05:56:03;;;;;;;1.13;0.43;;;16.60;99.90;;;;;;5032666;28;20209;-84
2022/07/23 05:58:33;;;;;;;1.23;0.30;;;16.60;99.90;;;;;;5032688;28;20204;-84
2022/07/23 06:01:04;;;;;;;1.00;0.50;;;16.60;99.90;;;;;;5046699;28;20197;-84
2022/07/23 06:03:35;;;;;;;1.50;0.43;;;16.60;99.90;;;;;;5051856;28;20208;-84
2022/07/23 06:06:06;;;;;;;0.68;0.30;;;16.60;99.90;;;;;;5052826;28;20560;-84
2022/07/23 06:08:36;;;;;;;1.33;0.50;;;16.50;99.90;;;;;;5052500;28;20196;-84
2022/07/23 06:11:09;;;;;;;1.75;0.50;;;16.50;99.90;;;;;;5052661;28;20192;-84
2022/07/23 06:13:40;;;;;;;0.90;0.40;;;16.50;99.90;;;;;;5051771;28;20192;-84
2022/07/23 06:16:13;;;;;;;1.45;0.50;;;16.50;99.90;;;;;;5050856;28;20602;-84
2022/07/23 06:18:44;;;;;;;2.38;0.52;;;16.50;99.90;;;;;;5051999;28;20246;-84
2022/07/23 06:21:15;;;;;;;2.63;0.40;;;16.40;99.90;;;;;;5043516;28;20198;-84
2022/07/23 06:23:46;;;;;;;0.40;0.40;;;16.40;99.90;;;;;;5032173;28;20652;-84
2022/07/23 06:26:18;;;;;;;1.02;0.60;;;16.40;99.90;;;;;;5031980;28;20228;-83
2022/07/23 06:28:49;;;;;;;1.23;0.57;;;16.40;99.90;;;;;;5032062;28;20657;-83
2022/07/23 06:31:20;;;;;;;2.15;0.63;;;16.40;99.90;;;;;;5031076;28;20585;-83
2022/07/23 06:33:50;;;;;;;1.30;0.65;;;16.40;99.90;;;;;;5033000;28;20664;-82
2022/07/23 06:36:21;;;;;;;2.15;0.60;;;16.40;99.90;;;;;;5051640;28;20219;-83
2022/07/23 06:38:52;;;;;;;0.50;0.47;;;16.40;99.90;;;;;;5050590;28;20235;-82
2022/07/23 06:41:25;;;;;;;2.65;0.80;;;16.30;99.90;;;;;;5051695;28;20204;-82
2022/07/23 06:43:56;;;;;;;2.63;1.10;;;16.30;99.90;;;;;;5051702;28;20205;-82
2022/07/23 06:46:27;;;;;;;1.25;0.80;;;16.30;99.90;;;;;;5051841;28;20197;-82
2022/07/23 06:48:57;;;;;;;2.92;1.10;;;16.30;99.90;;;;;;5052014;28;20707;-82
2022/07/23 06:51:28;;;;;;;2.53;1.35;;;16.20;99.90;;;;;;5050710;28;20573;-82
2022/07/23 06:53:59;;;;;;;2.28;1.42;;;16.20;99.90;;;;;;5051589;28;20208;-83
2022/07/23 06:56:32;;;;;;;1.90;1.50;;;16.10;99.90;;;;;;5032354;28;20236;-82
2022/07/23 06:59:02;;;;;;;3.53;1.58;;;16.10;99.90;;;;;;5031380;28;20224;-82
2022/07/23 07:01:33;;;;;;;3.15;1.80;;;16.10;99.90;;;;;;5031427;28;20201;-83
2022/07/23 07:04:05;;;;;;;3.80;1.83;;;16.10;99.90;;;;;;5049041;28;20651;-83
2022/07/23 07:06:37;;;;;;;3.63;1.90;;;16.00;99.90;;;;;;5051519;28;20196;-83
2022/07/23 07:09:08;;;;;;;4.63;3.50;;;16.00;99.90;;;;;;5050726;28;20208;-84
2022/07/23 07:11:40;;;;;;;6.93;4.13;;;16.10;99.90;;;;;;5046819;28;20216;-83
2022/07/23 07:14:11;;;;;;;5.05;3.80;;;16.00;99.90;;;;;;5036543;28;20218;-83
2022/07/23 07:16:44;;;;;;;6.30;4.30;;;16.00;99.90;;;;;;5047944;28;20232;-85
2022/07/23 07:19:14;;;;;;;5.65;4.00;;;16.00;99.90;;;;;;5051005;28;20189;-84
2022/07/23 07:21:49;;;;;;;5.80;3.47;;;15.90;99.90;;;;;;5045720;28;20185;-82
2022/07/23 07:24:19;;;;;;;6.30;3.58;;;15.90;99.90;;;;;;5043491;28;20199;-84
2022/07/23 07:26:52;;;;;;;4.03;3.10;;;15.90;99.90;;;;;;5043692;28;20238;-81
2022/07/23 07:29:23;;;;;;;4.72;3.42;;;15.80;99.90;;;;;;5042066;28;20211;-81
2022/07/23 07:31:54;;;;;;;5.07;3.33;;;15.80;99.90;;;;;;5042040;28;20584;-81
2022/07/23 07:34:25;;;;;;;4.88;3.80;;;15.80;99.90;;;;;;5041837;28;20216;-80
2022/07/23 07:36:55;;;;;;;4.43;4.00;;;15.80;99.90;;;;;;5043157;28;20212;-84
2022/07/23 07:39:27;;;;;;;4.80;3.97;;;15.80;99.90;;;;;;5043501;28;20647;-81
2022/07/23 07:42:01;;;;;;;6.18;3.78;;;15.80;99.90;;;;;;5043505;28;20200;-80
2022/07/23 07:44:35;;;;;;;5.40;3.92;;;15.70;99.90;;;;;;5042330;28;20197;-80
2022/07/23 07:47:06;;;;;;;4.80;3.65;;;15.70;99.90;;;;;;5042690;28;20193;-79
2022/07/23 07:49:37;;;;;;;5.32;3.88;;;15.60;99.90;;;;;;5043157;28;20287;-79
2022/07/23 07:52:08;;;;;;;4.72;3.70;;;15.60;99.90;;;;;;5043132;28;20201;-79
2022/07/23 07:54:39;;;;;;;3.97;2.85;;;15.60;99.90;;;;;;5042989;28;20193;-79
2022/07/23 07:57:12;;;;;;;3.63;3.05;;;15.60;99.90;;;;;;5042477;28;20284;-84
2022/07/23 07:59:42;;;;;;;5.22;3.03;;;15.60;99.90;;;;;;5043682;28;20759;-81
2022/07/23 08:02:13;;;;;;;5.28;3.45;;;15.50;99.90;;;;;;5039552;28;20622;-80
2022/07/23 08:04:44;;;;;;;4.22;3.80;;;15.50;99.90;;;;;;5041357;28;20194;-80
2022/07/23 08:07:15;;;;;;;5.22;3.65;;;15.50;99.90;;;;;;5042893;28;20199;-81
2022/07/23 08:09:46;;;;;;;6.32;4.68;;;15.50;99.90;;;;;;5043522;28;20230;-81
2022/07/23 08:12:18;;;;;;;10.00;5.07;;;15.50;99.90;;;;;;5046732;28;20188;-80
2022/07/23 08:14:49;;;;;;;8.65;4.40;;;15.50;99.90;;;;;;5044245;28;20219;-80
2022/07/23 08:17:20;;;;;;;8.00;4.20;;;15.50;99.90;;;;;;5041924;28;20223;-80
2022/07/23 08:19:50;;;;;;;7.18;5.05;;;15.40;99.90;;;;;;5042517;28;20632;-80
2022/07/23 08:22:22;;;;;;;7.70;4.68;;;15.40;99.90;;;;;;5040445;28;20197;-83
2022/07/23 08:24:53;;;;;;;7.90;5.80;;;15.40;99.90;;;;;;5042461;28;20667;-81
2022/07/23 08:27:25;;;;;;;20.48;16.10;;;15.40;99.90;;;;;;5041023;28;20732;-81
2022/07/23 08:29:56;;;;;;;16.63;13.23;;;15.50;99.90;;;;;;5041179;28;20193;-80
2022/07/23 08:32:27;;;;;;;13.88;11.60;;;15.40;99.90;;;;;;5043457;28;20200;-84
2022/07/23 08:34:57;;;;;;;9.82;8.73;;;15.40;99.90;;;;;;5042813;28;20200;-83
2022/07/23 08:37:28;;;;;;;10.02;7.53;;;15.40;99.90;;;;;;5049644;28;20220;-80
2022/07/23 08:39:58;;;;;;;9.07;5.97;;;15.40;99.90;;;;;;5050864;28;20241;-80
2022/07/23 08:42:31;;;;;;;8.77;5.32;;;15.40;99.90;;;;;;5039271;28;20201;-80
2022/07/23 08:45:02;;;;;;;5.80;4.65;;;15.40;99.90;;;;;;5040266;28;20205;-80
2022/07/23 08:47:33;;;;;;;5.55;3.97;;;15.40;99.90;;;;;;5033585;28;20200;-79
2022/07/23 08:50:05;;;;;;;5.03;4.00;;;15.40;99.90;;;;;;5033356;28;20583;-79
2022/07/23 08:52:36;;;;;;;6.93;5.00;;;15.40;99.90;;;;;;5033976;28;20232;-81
2022/07/23 08:55:08;;;;;;;7.82;4.97;;;15.40;99.90;;;;;;5035192;28;20212;-79
2022/07/23 08:57:40;;;;;;;9.40;5.50;;;15.40;99.90;;;;;;5042167;28;20233;-80
2022/07/23 09:00:12;;;;;;;9.80;5.22;;;15.40;99.90;;;;;;5028112;28;20594;-80
2022/07/23 09:02:44;;;;;;;9.90;7.70;;;15.40;99.90;;;;;;5034107;28;20217;-79
2022/07/23 09:05:15;;;;;;;13.25;9.43;;;15.30;99.90;;;;;;5042724;28;20204;-80
2022/07/23 09:08:10;;;;;;;13.85;9.25;;;15.30;99.90;;;;;;5052914;28;20242;-80
2022/07/23 09:10:57;;;;;;;11.07;8.43;;;15.30;99.90;;;;;;5043605;28;20193;-80
2022/07/23 09:13:38;;;;;;;10.35;7.65;;;15.30;99.90;;;;;;5051064;28;20192;-80
2022/07/23 09:16:11;;;;;;;9.35;7.43;;;15.30;99.90;;;;;;5053229;28;20208;-80
2022/07/23 09:18:45;;;;;;;10.77;7.53;;;15.20;99.90;;;;;;5042633;28;20232;-80
2022/07/23 09:21:24;;;;;;;9.60;6.88;;;15.20;99.90;;;;;;5032957;28;20240;-80
2022/07/23 09:23:57;;;;;;;8.98;6.00;;;15.20;99.90;;;;;;5032995;28;20201;-82
2022/07/23 09:26:37;;;;;;;10.18;7.10;;;15.20;99.90;;;;;;5035133;28;20209;-80
2022/07/23 09:29:13;;;;;;;12.18;8.05;;;15.20;99.90;;;;;;5033807;28;20205;-80
2022/07/23 09:31:52;;;;;;;14.27;8.77;;;15.20;99.90;;;;;;5047042;28;20220;-81
2022/07/23 09:34:27;;;;;;;14.98;7.90;;;15.20;99.90;;;;;;5044791;28;20251;-80
2022/07/23 09:37:13;;;;;;;10.85;6.47;;;15.20;99.90;;;;;;5040364;28;20224;-81
2022/07/23 09:39:44;;;;;;;12.75;7.38;;;15.20;99.90;;;;;;5044815;28;20311;-80
2022/07/23 09:42:19;;;;;;;12.13;7.15;;;15.20;99.90;;;;;;5039394;28;20656;-80
2022/07/23 09:44:56;;;;;;;9.48;6.13;;;15.20;99.90;;;;;;5046747;28;20213;-80
2022/07/23 09:47:34;;;;;;;10.80;6.97;;;15.20;99.90;;;;;;5038526;28;20223;-79
2022/07/23 09:50:08;;;;;;;14.10;7.47;;;15.10;99.90;;;;;;5036069;28;20730;-80
2022/07/23 09:52:52;;;;;;;14.02;7.10;;;15.10;99.90;;;;;;5051826;28;20574;-80
2022/07/23 09:55:34;;;;;;;10.43;6.00;;;15.10;99.90;;;;;;5040095;28;20209;-81
2022/07/23 09:58:06;;;;;;;8.38;5.50;;;15.10;99.90;;;;;;5034892;28;20277;-82
2022/07/23 10:00:39;;;;;;;7.82;5.57;;;15.00;99.90;;;;;;5052677;28;20231;-84
2022/07/23 10:03:11;;;;;;;9.30;6.00;;;15.10;99.90;;;;;;5037178;28;20564;-82
2022/07/23 10:05:45;;;;;;;7.28;5.90;;;15.10;99.90;;;;;;5046228;28;20200;-79
2022/07/23 10:08:21;;;;;;;8.05;6.25;;;15.10;99.90;;;;;;5052613;28;20200;-82
2022/07/23 10:10:56;;;;;;;9.00;5.88;;;15.10;99.90;;;;;;5043255;28;20197;-83
2022/07/23 10:16:40;;;;;;;6.88;5.70;;;15.00;99.90;;;;;;5033528;28;20201;-82
2022/07/23 10:19:11;;;;;;;7.63;5.97;;;15.00;99.90;;;;;;5033187;28;20711;-79
2022/07/23 10:24:55;;;;;;;7.90;5.97;;;15.00;99.90;;;;;;5032496;28;20259;-80
2022/07/23 10:31:36;;;;;;;9.05;6.40;;;14.90;99.90;;;;;;5036612;28;20213;-80
2022/07/23 10:34:17;;;;;;;10.07;6.93;;;14.80;99.90;;;;;;5048215;28;20197;-80
2022/07/23 10:37:09;;;;;;;8.32;6.00;;;14.90;99.90;;;;;;5034452;28;20645;-80
2022/07/23 10:39:42;;;;;;;9.68;7.50;;;14.80;99.90;;;;;;5045498;28;20315;-81
2022/07/23 10:42:20;;;;;;;8.15;6.88;;;14.70;99.90;;;;;;5051362;28;20271;-81
2022/07/23 10:45:00;;;;;;;10.13;7.15;;;14.70;99.90;;;;;;5051683;28;20204;-80
2022/07/23 10:47:46;;;;;;;10.43;7.35;;;14.60;99.90;;;;;;5048766;28;20196;-85
2022/07/23 10:50:35;;;;;;;9.50;6.78;;;14.70;99.90;;;;;;5044070;28;20220;-84
2022/07/23 10:53:17;;;;;;;9.75;7.00;;;14.60;99.90;;;;;;5041208;28;20213;-81
2022/07/23 10:55:53;;;;;;;10.30;7.38;;;14.60;99.90;;;;;;5037845;28;20200;-81
2022/07/23 10:58:26;;;;;;;10.10;7.20;;;14.60;99.90;;;;;;5047176;28;20286;-81
2022/07/23 11:00:56;;;;;;;10.77;8.43;;;14.60;99.90;;;;;;5031456;28;20201;-81
2022/07/23 11:03:38;;;;;;;11.27;8.43;;;14.60;99.90;;;;;;5038266;28;20215;-80
2022/07/23 11:06:12;;;;;;;10.25;7.93;;;14.60;99.90;;;;;;5048307;28;20197;-81
2022/07/23 11:09:09;;;;;;;10.57;7.07;;;14.60;99.90;;;;;;5050750;28;20193;-81
2022/07/23 11:11:49;;;;;;;8.25;6.80;;;14.60;99.90;;;;;;5050349;28;20678;-81
2022/07/23 11:15:03;;;;;;;7.68;5.72;;;14.60;99.90;;;;;;5050826;28;20196;-81
2022/07/23 11:17:38;;;;;;;9.10;5.82;;;14.50;99.90;;;;;;5031702;28;20246;-82
2022/07/23 11:20:27;;;;;;;8.30;6.68;;;14.50;99.90;;;;;;5051216;28;20204;-81
2022/07/23 11:23:04;;;;;;;10.98;7.63;;;14.60;99.90;;;;;;5036332;28;20200;-83
2022/07/23 11:25:38;;;;;;;7.88;6.32;;;14.60;99.90;;;;;;5035327;28;20291;-82
2022/07/23 11:28:25;;;;;;;8.15;6.10;;;14.60;99.90;;;;;;5029608;28;20690;-81
2022/07/23 11:30:56;;;;;;;8.60;6.32;;;14.60;99.90;;;;;;5033795;28;20606;-82
2022/07/23 11:33:37;;;;;;;8.48;5.82;;;14.50;99.90;;;;;;5030225;28;20668;-82
2022/07/23 11:36:10;;;;;;;7.18;5.70;;;14.50;99.90;;;;;;5031179;28;20876;-81
2022/07/23 11:38:42;;;;;;;7.30;6.00;;;14.40;99.90;;;;;;5030440;28;20236;-81
2022/07/23 11:41:13;;;;;;;7.78;5.90;;;14.50;99.90;;;;;;5030827;28;20204;-81
2022/07/23 11:43:44;;;;;;;7.45;6.25;;;14.50;99.90;;;;;;5039580;28;20228;-83
2022/07/23 11:46:20;;;;;;;8.13;5.95;;;14.50;99.90;;;;;;5033270;28;20201;-82
2022/07/23 11:49:05;;;;;;;8.75;6.20;;;14.60;99.90;;;;;;5046708;28;20557;-81
2022/07/23 11:51:39;;;;;;;6.38;5.50;;;14.60;99.90;;;;;;5041771;28;20212;-82
2022/07/23 11:54:10;;;;;;;8.20;5.93;;;14.60;99.90;;;;;;5050732;28;20199;-81
2022/07/23 11:56:57;;;;;;;8.75;6.03;;;14.60;99.90;;;;;;5045163;28;20269;-83
2022/07/23 11:59:29;;;;;;;7.15;5.68;;;14.60;99.90;;;;;;5049338;28;20224;-82
2022/07/23 12:02:04;;;;;;;9.23;6.93;;;14.60;99.90;;;;;;5035493;28;20735;-82
2022/07/23 12:04:41;;;;;;;7.53;6.32;;;14.60;99.90;;;;;;5043480;28;20208;-81
2022/07/23 12:10:20;;;;;;;7.72;6.07;;;14.60;99.90;;;;;;5100686;27;20511;-81
2022/07/23 12:12:52;;;;;;;7.60;5.88;;;14.50;99.90;;;;;;5091825;28;20191;-82
2022/07/23 12:15:25;;;;;;;7.45;5.20;;;14.50;99.90;;;;;;5092797;28;20198;-86
2022/07/23 12:17:56;;;;;;;6.30;5.32;;;14.50;99.90;;;;;;5089970;28;20668;-86
2022/07/23 12:20:28;;;;;;;6.85;5.07;;;14.50;99.90;;;;;;5086014;28;20567;-81
2022/07/23 12:23:01;;;;;;;5.93;5.20;;;14.40;99.90;;;;;;5082443;28;20203;-81
2022/07/23 12:25:35;;;;;;;5.20;4.68;;;14.40;99.90;;;;;;5087538;28;20658;-81
2022/07/23 12:28:08;;;;;;;6.95;5.47;;;14.40;99.90;;;;;;5087809;28;20223;-81
2022/07/23 12:30:42;;;;;;;6.35;5.10;;;14.40;99.90;;;;;;5087891;28;20195;-81
2022/07/23 12:33:13;;;;;;;5.45;4.68;;;14.40;99.90;;;;;;5080481;28;20207;-80
2022/07/23 12:35:45;;;;;;;8.40;5.90;;;14.40;99.90;;;;;;5085522;28;20216;-80
2022/07/23 12:38:17;;;;;;;7.72;5.50;;;14.40;99.90;;;;;;5080099;28;20223;-80
2022/07/23 12:40:51;;;;;;;7.40;5.28;;;14.30;99.90;;;;;;5076273;28;20629;-80
2022/07/23 12:43:26;;;;;;;7.13;5.53;;;14.30;99.90;;;;;;5087438;28;20206;-80
2022/07/23 12:45:58;;;;;;;7.70;5.50;;;14.30;99.90;;;;;;5087105;28;20222;-81
2022/07/23 12:48:31;;;;;;;6.32;5.25;;;14.30;99.90;;;;;;5086844;28;20242;-81
2022/07/23 12:51:03;;;;;;;5.57;4.97;;;14.30;99.90;;;;;;5086288;28;20199;-81
2022/07/23 12:53:39;;;;;;;6.43;5.45;;;14.30;99.90;;;;;;5084123;28;20188;-81
2022/07/23 12:56:14;;;;;;;6.50;5.80;;;14.30;99.90;;;;;;5083071;28;20199;-79
2022/07/23 12:58:47;;;;;;;8.15;5.50;;;14.30;99.90;;;;;;5085343;28;20601;-79
2022/07/23 13:01:27;;;;;;;6.28;5.63;;;14.20;99.90;;;;;;5071671;28;20227;-79
2022/07/23 13:04:03;;;;;;;7.25;5.57;;;14.20;99.90;;;;;;5084695;28;20567;-79
2022/07/23 13:06:35;;;;;;;7.28;5.68;;;14.20;99.90;;;;;;5086476;28;20191;-79
2022/07/23 13:09:08;;;;;;;7.22;5.97;;;14.20;99.90;;;;;;5083633;28;20250;-79
2022/07/23 13:11:40;;;;;;;7.57;5.85;;;14.20;99.90;;;;;;5079730;28;20189;-79
2022/07/23 13:14:12;;;;;;;7.78;5.60;;;14.20;99.90;;;;;;5067120;28;20219;-78
2022/07/23 13:16:43;;;;;;;7.10;5.85;;;14.20;99.90;;;;;;5079494;28;20207;-78
2022/07/23 13:19:14;;;;;;;7.38;5.85;;;14.20;99.90;;;;;;5083147;28;20214;-79
2022/07/23 13:21:46;;;;;;;7.70;6.32;;;14.20;99.90;;;;;;5069151;28;20223;-80
2022/07/23 13:24:16;;;;;;;7.97;6.03;;;14.30;99.90;;;;;;5065194;28;20216;-81
2022/07/23 13:26:50;;;;;;;7.38;6.28;;;14.20;99.90;;;;;;5072878;28;20196;-80
2022/07/23 13:29:21;;;;;;;7.50;5.80;;;14.20;99.90;;;;;;5067524;28;20226;-80